Weather reports worldwide

Advertisment
Cairnwell, United Kingdom (3072): temperature & dewpoint: 18.06.2017 04:00:00 - 24.06.2017 04:00:00 (BST)Cairnwell, United Kingdom (3072): temperature 5cm: 18.06.2017 04:00:00 - 24.06.2017 04:00:00 (BST)Cairnwell, United Kingdom (3072): wind speed & gusts: 18.06.2017 04:00:00 - 24.06.2017 04:00:00 (BST)Cairnwell, United Kingdom (3072): wind direction: 18.06.2017 04:00:00 - 24.06.2017 04:00:00 (BST)Cairnwell, United Kingdom (3072): visibility: 18.06.2017 04:00:00 - 24.06.2017 04:00:00 (BST)Cairnwell, United Kingdom (3072): precipitation: 18.06.2017 04:00:00 - 24.06.2017 04:00:00 (BST)
Date & Time tt [°C] td [°C] tt 5cm [°C] ff [km/h] ff [kn] fx [km/h] fx [kn] dd vv [km] rr [mm]
24.06.2017 04:00:00 4,7 1,0 - 65 35 89 48 W - -
24.06.2017 03:00:00 4,4 3,0 - 42 23 93 50 WSW - -
24.06.2017 02:00:00 4,4 3,3 - 55 30 81 44 W - -
24.06.2017 01:00:00 4,4 2,5 - 42 23 76 41 WSW - -
24.06.2017 00:00:00 4,9 2,0 - 59 32 89 48 W - -
23.06.2017 23:00:00 5,0 2,9 - 46 25 70 38 W - -
23.06.2017 22:00:00 5,2 3,2 - 50 27 65 35 WSW - -
23.06.2017 21:00:00 5,8 1,8 - 41 22 65 35 W - -
23.06.2017 20:00:00 6,8 0,8 - 37 20 70 38 W - -
23.06.2017 19:00:00 7,0 3,4 - 46 25 61 33 W - -
23.06.2017 18:00:00 7,8 2,7 - 34 18 61 33 W - -
23.06.2017 17:00:00 8,8 1,8 - 39 21 72 39 WSW - -
23.06.2017 16:00:00 9,3 2,4 - 42 23 74 40 W - -
23.06.2017 15:00:00 8,9 2,8 - 48 26 76 41 W - -
23.06.2017 14:00:00 8,4 3,3 - 42 23 89 48 W - -
23.06.2017 13:00:00 7,9 6,3 - 35 19 80 43 WSW - -
23.06.2017 12:00:00 7,8 5,4 - 44 24 78 42 W - -
23.06.2017 11:00:00 7,7 7,2 - 42 23 98 53 WSW - -
23.06.2017 10:00:00 8,7 7,8 - 87 47 126 68 W - -
23.06.2017 09:00:00 8,5 8,4 - 74 40 113 61 WSW - -
23.06.2017 08:00:00 8,2 8,1 - 57 31 70 38 SW - -
23.06.2017 07:00:00 7,6 7,6 - 52 28 74 40 SW - -
23.06.2017 06:00:00 7,5 7,4 - 59 32 81 44 SW - -
23.06.2017 05:00:00 7,2 7,1 - 63 34 81 44 SW - -
23.06.2017 04:00:00 7,0 6,9 - 63 34 78 42 SSW - -
23.06.2017 03:00:00 6,8 6,7 - 52 28 65 35 SSW - -
23.06.2017 02:00:00 6,8 6,7 - 46 25 63 34 SSW - -
23.06.2017 01:00:00 6,6 6,5 - 46 25 65 35 SSW - -
23.06.2017 00:00:00 6,5 6,4 - 46 25 57 31 SW - -
22.06.2017 23:00:00 6,8 6,6 - 37 20 67 36 SW - -
22.06.2017 22:00:00 7,2 6,3 - 57 31 72 39 WSW 0,3 -
22.06.2017 21:00:00 7,8 6,7 - 44 24 65 35 WSW - -
22.06.2017 20:00:00 8,4 6,7 - 35 19 52 28 WSW - -
22.06.2017 19:00:00 8,9 7,0 - 35 19 - - WSW - -
22.06.2017 18:00:00 9,6 7,0 - 22 12 - - SW - -
22.06.2017 17:00:00 9,8 9,4 - 29 16 - - SSW - -
22.06.2017 16:00:00 10,3 9,5 - 28 15 48 26 S - -
22.06.2017 15:00:00 10,6 8,4 - 22 12 - - S - -
22.06.2017 14:00:00 11,5 7,4 - 28 15 - - S - -
22.06.2017 13:00:00 11,9 6,0 - 16 9 - - SW - -
22.06.2017 12:00:00 11,7 5,3 - 15 8 - - S - -
22.06.2017 11:00:00 11,1 3,2 - 8 4 - - WNW - -
22.06.2017 10:00:00 10,3 5,4 - 13 7 - - N - -
22.06.2017 09:00:00 8,9 6,8 - 21 11 - - NNE - -
22.06.2017 08:00:00 8,8 8,5 - 16 9 - - NNE - -
22.06.2017 07:00:00 8,6 8,5 - 22 12 - - N - -
22.06.2017 06:00:00 8,9 8,7 - 34 18 - - NW - -
22.06.2017 05:00:00 9,4 9,2 - 26 14 - - NW - -
22.06.2017 04:00:00 10,4 10,2 - 26 14 - - WNW - -
22.06.2017 03:00:00 11,1 11,0 - 13 7 - - W - -
22.06.2017 02:00:00 11,8 11,6 - 29 16 - - W - -
22.06.2017 01:00:00 12,2 12,1 - 26 14 - - WSW - -
22.06.2017 00:00:00 12,3 12,2 - 26 14 - - WSW - -
21.06.2017 23:00:00 11,9 11,8 - 24 13 - - SW - -
21.06.2017 22:00:00 12,0 12,0 - 34 18 46 25 SW 0,3 -
21.06.2017 21:00:00 - - - 42 23 52 28 SSW - -
21.06.2017 20:00:00 11,9 11,8 - 35 19 - - S - -
21.06.2017 19:00:00 11,5 11,5 - 29 16 - - SSW - -
21.06.2017 18:00:00 11,3 11,3 - 29 16 - - WSW - -
21.06.2017 17:00:00 11,5 11,5 - 28 15 - - SSW - -
21.06.2017 16:00:00 11,0 10,9 - 28 15 - - SSW - -
21.06.2017 15:00:00 11,1 10,2 - 28 15 - - SSW - -
21.06.2017 14:00:00 10,0 9,2 - 29 16 - - SSW - -
21.06.2017 13:00:00 10,0 9,0 - 29 16 - - SSW - -
21.06.2017 12:00:00 10,1 8,8 - 28 15 - - S - -
21.06.2017 11:00:00 9,7 8,6 - 28 15 - - SSW - -
21.06.2017 10:00:00 9,3 8,3 10,6 24 13 - - S - 0,6
21.06.2017 09:00:00 8,9 8,7 - 22 12 - - S - -
21.06.2017 08:00:00 10,2 7,7 - 37 20 - - S - -
21.06.2017 07:00:00 9,9 8,1 - 28 15 - - S - -
21.06.2017 06:00:00 8,8 8,8 - 24 13 - - S - -
21.06.2017 05:00:00 8,1 8,1 - 28 15 - - S - -
21.06.2017 04:00:00 7,7 7,7 - 24 13 - - S - -
21.06.2017 03:00:00 7,7 7,7 - 26 14 - - S - -
21.06.2017 02:00:00 7,9 7,9 - 22 12 - - S - -
21.06.2017 01:00:00 7,4 7,3 - 28 15 - - SSE - -
21.06.2017 00:00:00 6,9 6,9 - 28 15 - - SSE - -
20.06.2017 23:00:00 6,3 6,3 - 28 15 - - SSE - -
20.06.2017 22:00:00 6,7 6,7 - 26 14 - - S - -
20.06.2017 21:00:00 7,6 7,2 - 24 13 - - S - -
20.06.2017 20:00:00 8,3 6,8 - 29 16 - - SSE - -
20.06.2017 19:00:00 11,5 7,4 - 28 15 - - S - -
20.06.2017 18:00:00 11,4 7,2 - 26 14 - - S - -
20.06.2017 17:00:00 10,9 6,5 - 24 13 - - SSW - -
20.06.2017 16:00:00 10,9 5,8 - 28 15 - - SSW - -
20.06.2017 15:00:00 11,3 5,2 - 22 12 - - S - -
20.06.2017 14:00:00 10,3 6,2 - 26 14 - - S - -
20.06.2017 13:00:00 10,3 4,3 - 21 11 - - S - -
20.06.2017 12:00:00 10,0 3,4 - 18 10 - - S - -
20.06.2017 11:00:00 9,0 4,2 - 16 9 - - S - -
20.06.2017 10:00:00 8,0 4,6 8,6 22 12 - - S - 0,3
20.06.2017 09:00:00 7,4 4,7 - 16 9 - - S - -
20.06.2017 08:00:00 6,8 2,7 - 11 6 - - SSW - -
20.06.2017 07:00:00 6,2 -1,4 - 5 3 - - NNE - -
20.06.2017 06:00:00 5,7 -3,1 - 5 3 - - N - -
20.06.2017 05:00:00 4,3 2,6 - 11 6 - - N - -
20.06.2017 04:00:00 4,2 3,4 - 8 4 - - N - -
20.06.2017 03:00:00 3,9 3,2 - 9 5 - - NW - -
20.06.2017 02:00:00 4,6 4,0 - 13 7 - - NW - -
20.06.2017 01:00:00 5,3 4,2 - 13 7 - - NW - -
20.06.2017 00:00:00 6,2 4,8 - 11 6 - - WNW - -
19.06.2017 23:00:00 6,4 4,9 - 31 17 - - WNW - -
19.06.2017 22:00:00 7,7 4,4 - 39 21 - - WNW - -
19.06.2017 21:00:00 9,5 4,3 - 35 19 - - WNW - -
19.06.2017 20:00:00 11,2 3,6 - 24 13 52 28 W - -
19.06.2017 19:00:00 10,8 2,8 - 34 18 46 25 WNW - -
19.06.2017 18:00:00 12,3 4,8 - 26 14 - - W - -
19.06.2017 17:00:00 11,2 6,7 - 31 17 48 26 WNW - -
19.06.2017 16:00:00 11,5 7,0 - 35 19 50 27 WNW - -
19.06.2017 15:00:00 13,5 7,2 - 28 15 52 28 W - -
19.06.2017 14:00:00 11,4 8,6 - 34 18 50 27 W - -
19.06.2017 13:00:00 13,5 6,9 - 37 20 54 29 W - -
19.06.2017 12:00:00 11,6 7,1 - 41 22 67 36 W - -
19.06.2017 11:00:00 11,2 8,0 - 42 23 65 35 W - -
19.06.2017 10:00:00 10,7 9,6 10,9 - - - - - - 0,9
19.06.2017 09:00:00 10,2 9,7 - - - - - - - -
19.06.2017 08:00:00 9,9 9,8 - 22 12 - - SW - -
19.06.2017 07:00:00 10,0 9,9 - 28 15 - - SW - -
19.06.2017 06:00:00 9,6 9,5 - 24 13 - - SW - -
19.06.2017 05:00:00 9,3 9,2 - 22 12 - - SSW - -
19.06.2017 04:00:00 9,7 9,6 - 26 14 - - SW - -
19.06.2017 03:00:00 10,3 10,2 - 22 12 - - SSW - -
19.06.2017 02:00:00 10,6 10,5 - 18 10 - - SW - -
19.06.2017 01:00:00 10,5 10,4 - 16 9 - - SSW - -
19.06.2017 00:00:00 10,5 10,3 - 18 10 - - S - -
18.06.2017 23:00:00 10,5 10,3 - 18 10 - - SSW - -
18.06.2017 22:00:00 10,9 10,5 - 24 13 - - WSW - -
18.06.2017 21:00:00 11,8 10,6 - 29 16 50 27 WSW - -
18.06.2017 20:00:00 12,3 10,5 - 29 16 61 33 WSW - -
18.06.2017 19:00:00 12,2 10,8 - 31 17 57 31 WSW - -
18.06.2017 18:00:00 12,6 11,1 - 42 23 61 33 WSW - -
18.06.2017 17:00:00 13,3 10,5 - 44 24 63 34 WSW - -
18.06.2017 16:00:00 14,2 8,4 - 46 25 63 34 WSW - -
18.06.2017 15:00:00 13,5 8,9 - 44 24 67 36 WSW - -
18.06.2017 14:00:00 13,6 9,4 - 46 25 72 39 WSW - -
18.06.2017 13:00:00 12,6 10,0 - 46 25 61 33 WSW - -
18.06.2017 12:00:00 12,2 10,8 - 41 22 61 33 SW - -
18.06.2017 11:00:00 12,0 10,5 - 44 24 78 42 WSW - -
18.06.2017 10:00:00 11,3 10,0 12,1 59 32 85 46 WSW - 1,0
18.06.2017 09:00:00 11,3 10,0 - 37 20 63 34 W - -
18.06.2017 08:00:00 10,6 10,5 - 35 19 76 41 W - -
18.06.2017 07:00:00 10,5 10,4 - 50 27 76 41 W - -
18.06.2017 06:00:00 10,4 10,3 - 55 30 80 43 WSW - -
18.06.2017 05:00:00 10,3 10,3 - 65 35 - - WSW - -
18.06.2017 04:00:00 10,7 10,6 - 67 36 93 50 WSW - -

tt = temperature
td = dewpoint
tt 5cm = temperature 5cm
ff = wind speed
fx = gusts
dd = wind direction
vv = visibility
rr = precipitation

Next stations